Time;durP1;ratioP1;P1;durP2;ratioP2;P2;SDS_P1;SDS_P2;PMS_P1;PMS_P2;Temp;Humidity;BMP_temperature;BMP_pressure;BME280_temperature;BME280_humidity;BME280_pressure;Samples;Min_cycle;Max_cycle;Signal;HPM_P1;HPM_P2
2022/10/10 00:00:29;;;;;;;;;;;7.60;99.90;;;;;;5086161;28;19967;-64
2022/10/10 00:02:57;;;;;;;;;;;7.50;99.90;;;;;;5083219;28;20461;-64
2022/10/10 00:05:23;;;;;;;;;;;7.60;99.90;;;;;;5090043;28;20027;-63
2022/10/10 00:07:50;;;;;;;;;;;7.60;99.90;;;;;;5092995;28;19930;-64
2022/10/10 00:10:17;;;;;;;;;;;7.60;99.90;;;;;;5082158;28;20018;-64
2022/10/10 00:12:44;;;;;;;;;;;7.60;99.90;;;;;;5087068;28;20027;-64
2022/10/10 00:15:11;;;;;;;;;;;7.60;99.90;;;;;;5090257;28;19924;-64
2022/10/10 00:17:39;;;;;;;;;;;7.60;99.90;;;;;;5090050;28;19971;-64
2022/10/10 00:20:07;;;;;;;;;;;7.60;99.90;;;;;;5090723;28;19931;-64
2022/10/10 00:22:34;;;;;;;;;;;7.60;99.90;;;;;;5091273;28;19924;-64
2022/10/10 00:25:01;;;;;;;;;;;7.50;99.90;;;;;;5085270;28;19924;-64
2022/10/10 00:27:28;;;;;;;;;;;7.50;99.90;;;;;;5085769;28;19924;-64
2022/10/10 00:29:54;;;;;;;;;;;7.40;99.90;;;;;;5094677;28;20027;-64
2022/10/10 00:32:21;;;;;;;;;;;7.40;99.90;;;;;;5099704;28;19975;-64
2022/10/10 00:34:48;;;;;;;;;;;7.30;99.90;;;;;;5089555;28;19976;-64
2022/10/10 00:37:16;;;;;;;;;;;7.30;99.90;;;;;;5091591;28;19962;-64
2022/10/10 00:39:42;;;;;;;;;;;7.30;99.90;;;;;;5082898;28;20085;-63
2022/10/10 00:42:11;;;;;;;;;;;7.30;99.90;;;;;;5089334;28;19924;-64
2022/10/10 00:44:39;;;;;;;;;;;7.20;99.90;;;;;;5091016;28;19924;-64
2022/10/10 00:47:06;;;;;;;;;;;7.20;99.90;;;;;;5093613;28;19931;-64
2022/10/10 00:49:34;;;;;;;;;;;7.10;99.90;;;;;;5093896;28;20003;-64
2022/10/10 00:52:01;;;;;;;;;;;7.10;99.90;;;;;;5105919;28;19924;-64
2022/10/10 00:54:31;;;;;;;;;;;7.10;99.90;;;;;;5090619;28;19923;-64
2022/10/10 00:57:00;;;;;;;;;;;7.10;99.90;;;;;;5092096;28;20396;-63
2022/10/10 00:59:30;;;;;;;;;;;7.10;99.90;;;;;;5102919;28;19971;-64
2022/10/10 01:01:56;;;;;;;;;;;7.00;99.90;;;;;;5089504;28;20271;-64
2022/10/10 01:04:33;;;;;;;;;;;7.00;99.90;;;;;;5092072;28;20049;-64
2022/10/10 01:07:01;;;;;;;;;;;6.90;99.90;;;;;;5097958;28;20408;-64
2022/10/10 01:09:30;;;;;;;;;;;6.90;99.90;;;;;;5092917;28;20811;-64
2022/10/10 01:11:59;;;;;;;;;;;6.90;99.90;;;;;;5087995;28;20446;-64
2022/10/10 01:14:30;;;;;;;;;;;6.80;99.90;;;;;;5091351;28;19935;-64
2022/10/10 01:17:01;;;;;;;;;;;6.70;99.90;;;;;;5092351;28;19930;-64
2022/10/10 01:19:44;;;;;;;;;;;6.70;99.90;;;;;;5089408;28;20388;-64
2022/10/10 01:22:16;;;;;;;;;;;6.70;99.90;;;;;;5091390;28;19934;-64
2022/10/10 01:24:53;;;;;;;;;;;6.70;99.90;;;;;;5103864;28;19931;-64
2022/10/10 01:27:29;;;;;;;;;;;6.80;99.90;;;;;;5094142;28;19924;-63
2022/10/10 01:29:59;;;;;;;;;;;6.80;99.90;;;;;;5091979;28;19932;-64
2022/10/10 01:32:29;;;;;;;;;;;6.70;99.90;;;;;;5088876;28;19931;-64
2022/10/10 01:35:00;;;;;;;;;;;6.80;99.90;;;;;;5089702;28;19924;-64
2022/10/10 01:37:32;;;;;;;;;;;6.70;99.90;;;;;;5089328;28;19925;-64
2022/10/10 01:40:00;;;;;;;;;;;6.80;99.90;;;;;;5089860;28;19924;-64
2022/10/10 01:42:29;;;;;;;;;;;6.80;99.90;;;;;;5093968;28;19924;-64
2022/10/10 01:44:58;;;;;;;;;;;6.70;99.90;;;;;;5087817;28;19924;-64
2022/10/10 01:47:25;;;;;;;;;;;6.60;99.90;;;;;;5100935;28;20417;-63
2022/10/10 01:49:53;;;;;;;;;;;6.60;99.90;;;;;;5094413;28;20392;-64
2022/10/10 01:52:25;;;;;;;;;;;6.50;99.90;;;;;;5093987;28;19925;-64
2022/10/10 01:54:58;;;;;;;;;;;6.50;99.90;;;;;;5089230;28;19924;-64
2022/10/10 01:57:30;;;;;;;;;;;6.50;99.90;;;;;;5088908;28;19924;-64
2022/10/10 02:00:05;;;;;;;;;;;6.50;99.90;;;;;;5087757;28;20351;-64
2022/10/10 02:02:39;;;;;;;;;;;6.50;99.90;;;;;;5090284;28;19967;-64
2022/10/10 02:05:09;;;;;;;;;;;6.50;99.90;;;;;;5094608;28;19930;-64
2022/10/10 02:07:39;;;;;;;;;;;6.50;99.90;;;;;;5098682;28;19930;-64
2022/10/10 02:10:07;;;;;;;;;;;6.50;99.90;;;;;;5096949;28;19930;-64
2022/10/10 02:12:34;;;;;;;;;;;6.60;99.90;;;;;;5097240;28;19924;-64
2022/10/10 02:15:06;;;;;;;;;;;6.60;99.90;;;;;;5094187;28;19930;-65
2022/10/10 02:17:35;;;;;;;;;;;6.70;99.90;;;;;;5088822;28;20393;-64
2022/10/10 02:20:01;;;;;;;;;;;6.60;99.90;;;;;;5096151;28;20015;-64
2022/10/10 02:22:29;;;;;;;;;;;6.60;99.90;;;;;;5098246;28;19932;-64
2022/10/10 02:24:56;;;;;;;;;;;6.60;99.90;;;;;;5091050;28;19950;-64
2022/10/10 02:27:25;;;;;;;;;;;6.60;99.90;;;;;;5091770;28;19930;-64
2022/10/10 02:29:52;;;;;;;;;;;6.60;99.90;;;;;;5092364;28;19946;-64
2022/10/10 02:32:22;;;;;;;;;;;6.50;99.90;;;;;;5087806;28;19924;-64
2022/10/10 02:34:51;;;;;;;;;;;6.50;99.90;;;;;;5090614;28;20368;-65
2022/10/10 02:37:18;;;;;;;;;;;6.50;99.90;;;;;;5096756;28;19946;-65
2022/10/10 02:39:47;;;;;;;;;;;6.50;99.90;;;;;;5091105;28;20160;-65
2022/10/10 02:42:15;;;;;;;;;;;6.50;99.90;;;;;;5096553;28;19983;-67
2022/10/10 02:44:42;;;;;;;;;;;6.60;99.90;;;;;;5095268;28;19924;-66
2022/10/10 02:47:09;;;;;;;;;;;6.60;99.90;;;;;;5093900;28;19931;-65
2022/10/10 02:49:37;;;;;;;;;;;6.60;99.90;;;;;;5091260;28;19924;-66
2022/10/10 02:52:04;;;;;;;;;;;6.60;99.90;;;;;;5094670;28;19930;-66
2022/10/10 02:54:31;;;;;;;;;;;6.50;99.90;;;;;;5082485;28;20015;-66
2022/10/10 02:56:57;;;;;;;;;;;6.60;99.90;;;;;;5092714;28;19934;-66
2022/10/10 02:59:24;;;;;;;;;;;6.50;99.90;;;;;;5092216;28;19924;-66
2022/10/10 03:01:51;;;;;;;;;;;6.50;99.90;;;;;;5084341;28;19924;-66
2022/10/10 03:04:17;;;;;;;;;;;6.50;99.90;;;;;;5091580;28;19931;-66
2022/10/10 03:06:45;;;;;;;;;;;6.50;99.90;;;;;;5077439;28;20035;-66
2022/10/10 03:09:12;;;;;;;;;;;6.50;99.90;;;;;;5088472;28;20027;-66
2022/10/10 03:11:39;;;;;;;;;;;6.50;99.90;;;;;;5089157;28;20010;-66
2022/10/10 03:14:05;;;;;;;;;;;6.50;99.90;;;;;;5096031;28;20017;-66
2022/10/10 03:16:32;;;;;;;;;;;6.50;99.90;;;;;;5090213;28;19932;-66
2022/10/10 03:18:59;;;;;;;;;;;6.60;99.90;;;;;;5107693;28;20322;-66
2022/10/10 03:21:25;;;;;;;;;;;6.70;99.90;;;;;;5087742;28;20089;-66
2022/10/10 03:23:53;;;;;;;;;;;6.70;99.90;;;;;;5098455;28;20486;-66
2022/10/10 03:26:20;;;;;;;;;;;6.90;99.90;;;;;;5090835;28;20481;-66
2022/10/10 03:28:47;;;;;;;;;;;7.20;99.90;;;;;;5097874;28;19924;-66
2022/10/10 03:31:13;;;;;;;;;;;7.40;99.90;;;;;;5095834;28;20004;-66
2022/10/10 03:33:40;;;;;;;;;;;7.60;99.90;;;;;;5090421;28;20046;-67
2022/10/10 03:36:07;;;;;;;;;;;8.00;99.90;;;;;;5103025;28;19924;-66
2022/10/10 03:38:33;;;;;;;;;;;8.30;99.90;;;;;;5096426;28;19924;-66
2022/10/10 03:41:01;;;;;;;;;;;8.50;99.90;;;;;;5092342;28;19931;-66
2022/10/10 03:43:28;;;;;;;;;;;8.60;99.90;;;;;;5095870;28;20021;-66
2022/10/10 03:45:55;;;;;;;;;;;8.60;99.90;;;;;;5092963;28;20007;-66
2022/10/10 03:48:21;;;;;;;;;;;8.80;99.90;;;;;;5094954;28;19931;-66
2022/10/10 03:50:48;;;;;;;;;;;8.80;99.90;;;;;;5090250;28;19946;-66
2022/10/10 03:53:14;;;;;;;;;;;8.80;99.90;;;;;;5101978;28;20329;-66
2022/10/10 03:55:41;;;;;;;;;;;8.90;99.90;;;;;;5096595;28;20290;-66
2022/10/10 03:58:09;;;;;;;;;;;8.90;99.90;;;;;;5090093;28;20022;-66
2022/10/10 04:00:36;;;;;;;;;;;9.00;99.90;;;;;;5085232;28;19955;-67
2022/10/10 04:03:05;;;;;;;;;;;9.00;99.90;;;;;;5086081;28;19947;-67
2022/10/10 04:05:32;;;;;;;;;;;9.10;99.90;;;;;;5087634;28;19987;-67
2022/10/10 04:07:59;;;;;;;;;;;9.10;99.90;;;;;;5092918;28;19924;-67
2022/10/10 04:10:25;;;;;;;;;;;9.10;99.90;;;;;;5089489;28;20371;-67
2022/10/10 04:12:52;;;;;;;;;;;9.10;99.90;;;;;;5100979;28;19946;-67
2022/10/10 04:15:20;;;;;;;;;;;9.10;99.90;;;;;;5095190;28;20429;-67
2022/10/10 04:17:47;;;;;;;;;;;9.20;99.90;;;;;;5086914;28;20298;-67
2022/10/10 04:20:13;;;;;;;;;;;9.20;99.90;;;;;;5095917;28;19931;-67
2022/10/10 04:22:41;;;;;;;;;;;9.20;99.90;;;;;;5088639;28;20004;-66
2022/10/10 04:25:08;;;;;;;;;;;9.20;99.90;;;;;;5100643;28;20282;-66
2022/10/10 04:27:35;;;;;;;;;;;9.20;99.90;;;;;;5088739;28;20012;-66
2022/10/10 04:30:01;;;;;;;;;;;9.20;99.90;;;;;;5087604;28;19971;-66
2022/10/10 04:32:29;;;;;;;;;;;9.20;99.90;;;;;;5093754;28;20412;-66
2022/10/10 04:34:56;;;;;;;;;;;9.20;99.90;;;;;;5089966;28;19931;-66
2022/10/10 04:37:23;;;;;;;;;;;9.30;99.90;;;;;;5078816;28;20023;-66
2022/10/10 04:39:49;;;;;;;;;;;9.30;99.90;;;;;;5096245;28;19924;-66
2022/10/10 04:42:16;;;;;;;;;;;9.30;99.90;;;;;;5100902;28;19928;-66
2022/10/10 04:44:43;;;;;;;;;;;9.30;99.90;;;;;;5090069;28;19959;-66
2022/10/10 04:47:09;;;;;;;;;;;9.30;99.90;;;;;;5090794;28;20362;-66
2022/10/10 04:49:37;;;;;;;;;;;9.30;99.90;;;;;;5088446;28;20386;-66
2022/10/10 04:52:04;;;;;;;;;;;9.30;99.90;;;;;;5089386;28;19934;-67
2022/10/10 04:54:31;;;;;;;;;;;9.40;99.90;;;;;;5090056;28;20010;-67
2022/10/10 04:56:57;;;;;;;;;;;9.40;99.90;;;;;;5075272;28;19946;-66
2022/10/10 04:59:24;;;;;;;;;;;9.40;99.90;;;;;;5089176;28;20394;-66
2022/10/10 05:01:51;;;;;;;;;;;9.40;99.90;;;;;;5088297;28;19924;-66
2022/10/10 05:04:17;;;;;;;;;;;9.40;99.90;;;;;;5089112;28;20319;-67
2022/10/10 05:06:45;;;;;;;;;;;9.40;99.90;;;;;;5099954;28;19958;-67
2022/10/10 05:09:12;;;;;;;;;;;9.40;99.90;;;;;;5090720;28;20406;-66
2022/10/10 05:11:39;;;;;;;;;;;9.40;99.90;;;;;;5089907;28;20383;-66
2022/10/10 05:14:05;;;;;;;;;;;9.40;99.90;;;;;;5089791;28;20458;-68
2022/10/10 05:16:32;;;;;;;;;;;9.40;99.90;;;;;;5088991;28;20421;-66
2022/10/10 05:19:00;;;;;;;;;;;9.40;99.90;;;;;;5088522;28;20015;-66
2022/10/10 05:21:27;;;;;;;;;;;9.40;99.90;;;;;;5088305;28;19924;-66
2022/10/10 05:23:55;;;;;;;;;;;9.40;99.90;;;;;;5087441;28;19924;-66
2022/10/10 05:26:22;;;;;;;;;;;9.40;99.90;;;;;;5104712;28;19924;-66
2022/10/10 05:28:48;;;;;;;;;;;9.40;99.90;;;;;;5096947;28;20015;-66
2022/10/10 05:31:15;;;;;;;;;;;9.40;99.90;;;;;;5088616;28;20374;-66
2022/10/10 05:33:42;;;;;;;;;;;9.40;99.90;;;;;;5086875;28;20286;-66
2022/10/10 05:36:10;;;;;;;;;;;9.40;99.90;;;;;;5084350;28;19927;-66
2022/10/10 05:38:37;;;;;;;;;;;9.40;99.90;;;;;;5088975;28;19924;-66
2022/10/10 05:41:06;;;;;;;;;;;9.40;99.90;;;;;;5077816;28;20013;-65
2022/10/10 05:43:34;;;;;;;;;;;9.40;99.90;;;;;;5102656;28;20014;-66
2022/10/10 05:46:00;;;;;;;;;;;9.40;99.90;;;;;;5094524;28;19960;-65
2022/10/10 05:48:27;;;;;;;;;;;9.40;99.90;;;;;;5086714;28;20396;-67
2022/10/10 05:50:55;;;;;;;;;;;9.40;99.90;;;;;;5101132;28;19924;-66
2022/10/10 05:53:22;;;;;;;;;;;9.40;99.90;;;;;;5090853;28;19924;-67
2022/10/10 05:55:49;;;;;;;;;;;9.40;99.90;;;;;;5103099;28;19975;-66
2022/10/10 05:58:17;;;;;;;;;;;9.40;99.90;;;;;;5094736;28;20280;-65
2022/10/10 06:00:45;;;;;;;;;;;9.40;99.90;;;;;;5099298;28;20007;-67
2022/10/10 06:03:13;;;;;;;;;;;9.40;99.90;;;;;;5086128;28;20421;-67
2022/10/10 06:05:40;;;;;;;;;;;9.40;99.90;;;;;;5090138;28;20350;-66
2022/10/10 06:08:07;;;;;;;;;;;9.40;99.90;;;;;;5091339;28;19924;-66
2022/10/10 06:10:34;;;;;;;;;;;9.40;99.90;;;;;;5090147;28;20355;-65
2022/10/10 06:13:01;;;;;;;;;;;9.40;99.90;;;;;;5093784;28;20006;-66
2022/10/10 06:15:29;;;;;;;;;;;9.40;99.90;;;;;;5093353;28;20018;-66
2022/10/10 06:17:55;;;;;;;;;;;9.40;99.90;;;;;;5094417;28;19931;-67
2022/10/10 06:20:22;;;;;;;;;;;9.40;99.90;;;;;;5088320;28;19928;-66
2022/10/10 06:22:49;;;;;;;;;;;9.50;99.90;;;;;;5087930;28;19963;-66
2022/10/10 06:25:16;;;;;;;;;;;9.50;99.90;;;;;;5090906;28;20386;-65
2022/10/10 06:27:43;;;;;;;;;;;9.50;99.90;;;;;;5093513;28;20509;-65
2022/10/10 06:30:10;;;;;;;;;;;9.50;99.90;;;;;;5088718;28;20371;-65
2022/10/10 06:32:38;;;;;;;;;;;9.60;99.90;;;;;;5095590;28;19931;-65
2022/10/10 06:35:05;;;;;;;;;;;9.60;99.90;;;;;;5096594;28;19974;-65
2022/10/10 06:37:32;;;;;;;;;;;9.60;99.90;;;;;;5080290;28;19966;-65
2022/10/10 06:39:59;;;;;;;;;;;9.70;99.90;;;;;;5100043;28;20015;-65
2022/10/10 06:42:26;;;;;;;;;;;9.70;99.90;;;;;;5089402;28;19928;-65
2022/10/10 06:44:52;;;;;;;;;;;9.80;99.90;;;;;;5100533;28;19946;-66
2022/10/10 06:47:19;;;;;;;;;;;9.90;99.90;;;;;;5089300;28;19924;-65
2022/10/10 06:49:47;;;;;;;;;;;10.00;99.90;;;;;;5096266;28;20369;-67
2022/10/10 06:52:14;;;;;;;;;;;10.10;99.90;;;;;;5092135;28;20412;-66
2022/10/10 06:54:40;;;;;;;;;;;10.10;99.90;;;;;;5097534;28;20366;-66
2022/10/10 06:57:07;;;;;;;;;;;10.20;99.90;;;;;;5096075;28;19924;-66
2022/10/10 06:59:34;;;;;;;;;;;10.30;99.90;;;;;;5095159;28;19924;-66
2022/10/10 07:02:00;;;;;;;;;;;10.40;99.90;;;;;;5088857;28;19943;-66
2022/10/10 07:04:27;;;;;;;;;;;10.40;99.90;;;;;;5090645;28;20034;-66
2022/10/10 07:06:55;;;;;;;;;;;10.50;99.90;;;;;;5091029;28;19970;-65
2022/10/10 07:09:22;;;;;;;;;;;10.50;99.90;;;;;;5104470;28;19953;-66
2022/10/10 07:11:49;;;;;;;;;;;10.60;99.90;;;;;;5096389;28;19925;-66
2022/10/10 07:14:15;;;;;;;;;;;10.70;99.90;;;;;;5092149;28;19967;-66
2022/10/10 07:16:42;;;;;;;;;;;10.80;99.90;;;;;;5098935;28;20063;-66
2022/10/10 07:19:09;;;;;;;;;;;10.90;99.90;;;;;;5091947;28;19972;-66
2022/10/10 07:21:35;;;;;;;;;;;11.00;99.90;;;;;;5090101;28;19931;-66
2022/10/10 07:24:03;;;;;;;;;;;11.10;99.90;;;;;;5101662;28;20077;-66
2022/10/10 07:26:35;;;;;;;;;;;11.30;99.90;;;;;;5101000;28;19930;-65
2022/10/10 07:29:02;;;;;;;;;;;11.40;99.90;;;;;;5094537;28;20267;-65
2022/10/10 07:31:29;;;;;;;;;;;11.70;99.90;;;;;;5091474;28;19932;-65
2022/10/10 07:33:55;;;;;;;;;;;11.80;99.90;;;;;;5102265;28;19950;-65
2022/10/10 07:36:22;;;;;;;;;;;12.00;99.90;;;;;;5091059;28;20022;-66
2022/10/10 07:38:50;;;;;;;;;;;12.10;99.90;;;;;;5090742;28;20010;-65
2022/10/10 07:41:19;;;;;;;;;;;12.30;99.90;;;;;;5100049;28;19928;-65
2022/10/10 07:43:46;;;;;;;;;;;12.40;99.90;;;;;;5100421;28;19931;-66
2022/10/10 07:46:14;;;;;;;;;;;13.10;99.90;;;;;;5092950;28;19924;-66
2022/10/10 07:48:41;;;;;;;;;;;14.70;99.90;;;;;;5107004;28;19924;-65
2022/10/10 07:51:08;;;;;;;;;;;16.50;99.90;;;;;;5097340;28;20420;-64
2022/10/10 07:53:34;;;;;;;;;;;18.30;99.90;;;;;;5093447;28;20360;-65
2022/10/10 07:56:03;;;;;;;;;;;19.60;99.90;;;;;;5084396;28;20384;-65
2022/10/10 07:58:31;;;;;;;;;;;20.70;97.90;;;;;;5095518;28;20034;-66
2022/10/10 08:01:02;;;;;;;;;;;20.70;93.30;;;;;;5093844;28;20390;-65
2022/10/10 08:03:28;;;;;;;;;;;21.10;91.00;;;;;;5091358;28;20390;-66
2022/10/10 08:05:55;;;;;;;;;;;20.30;90.10;;;;;;5085761;28;20027;-67
2022/10/10 08:08:21;;;;;;;;;;;19.20;93.60;;;;;;5089768;28;19928;-66
2022/10/10 08:10:48;;;;;;;;;;;18.20;97.30;;;;;;5087518;28;20054;-67
2022/10/10 08:13:15;;;;;;;;;;;18.50;97.60;;;;;;5096372;28;19960;-66
2022/10/10 08:15:43;;;;;;;;;;;19.20;95.50;;;;;;5096794;28;20014;-66
2022/10/10 08:18:10;;;;;;;;;;;19.70;93.10;;;;;;5088896;28;19931;-66
2022/10/10 08:20:36;;;;;;;;;;;19.50;92.40;;;;;;5100218;28;20600;-66
2022/10/10 08:23:03;;;;;;;;;;;18.70;93.70;;;;;;5085971;28;19924;-66
2022/10/10 08:25:30;;;;;;;;;;;19.30;94.60;;;;;;5080812;28;19947;-68
2022/10/10 08:27:56;;;;;;;;;;;20.00;94.60;;;;;;5102056;28;19950;-66
2022/10/10 08:30:23;;;;;;;;;;;20.60;95.20;;;;;;5096583;28;19927;-66
2022/10/10 08:32:50;;;;;;;;;;;;;;;;;;5090886;28;19924;-66
2022/10/10 08:35:18;;;;;;;;;;;21.70;84.50;;;;;;5093147;28;19934;-66
2022/10/10 08:37:45;;;;;;;;;;;20.70;83.00;;;;;;5099295;28;20022;-66
2022/10/10 08:40:14;;;;;;;;;;;19.20;88.50;;;;;;5092712;28;20011;-65
2022/10/10 08:42:41;;;;;;;;;;;18.40;92.60;;;;;;5087756;28;19924;-66
2022/10/10 08:45:10;;;;;;;;;;;17.60;96.40;;;;;;5088414;28;20343;-66
2022/10/10 08:47:39;;;;;;;;;;;17.00;99.90;;;;;;5084999;28;19931;-66
2022/10/10 08:50:07;;;;;;;;;;;16.60;99.90;;;;;;5086877;28;20023;-66
2022/10/10 08:52:37;;;;;;;;;;;16.40;99.90;;;;;;5097045;28;19947;-66
2022/10/10 08:55:06;;;;;;;;;;;15.90;99.90;;;;;;5092456;28;19962;-66
2022/10/10 08:57:34;;;;;;;;;;;15.50;99.90;;;;;;5092780;28;19932;-65
2022/10/10 09:00:04;;;;;;;;;;;15.30;99.90;;;;;;5091265;28;19924;-65
2022/10/10 09:02:35;;;;;;;;;;;15.20;99.90;;;;;;5089661;28;19928;-66
2022/10/10 09:05:02;;;;;;;;;;;15.10;99.90;;;;;;5086810;28;19963;-65
2022/10/10 09:07:43;;;;;;;;;;;15.10;99.90;;;;;;5083487;28;19943;-66
2022/10/10 09:10:13;;;;;;;;;;;15.40;99.90;;;;;;5087524;28;20405;-66
2022/10/10 09:12:44;;;;;;;;;;;16.50;99.90;;;;;;5095248;28;19935;-65
2022/10/10 09:15:14;;;;;;;;;;;17.30;99.90;;;;;;5086051;28;19924;-66
2022/10/10 09:17:42;;;;;;;;;;;19.00;99.90;;;;;;5096771;28;20024;-66
2022/10/10 09:20:16;;;;;;;;;;;19.90;97.80;;;;;;5100472;28;19956;-66
2022/10/10 09:22:49;;;;;;;;;;;19.10;97.30;;;;;;5086665;28;20345;-66
2022/10/10 09:25:18;;;;;;;;;;;18.60;98.10;;;;;;5085010;28;20015;-66
2022/10/10 09:27:47;;;;;;;;;;;17.70;99.20;;;;;;5089576;28;19931;-66
2022/10/10 09:30:17;;;;;;;;;;;17.00;99.90;;;;;;5087793;28;19924;-66
2022/10/10 09:32:45;;;;;;;;;;;16.60;99.90;;;;;;5092213;28;20032;-66
2022/10/10 09:35:15;;;;;;;;;;;16.40;99.90;;;;;;5093788;28;19930;-66
2022/10/10 09:37:43;;;;;;;;;;;16.20;99.90;;;;;;5090985;28;20386;-66
2022/10/10 09:40:13;;;;;;;;;;;16.20;99.90;;;;;;5090715;28;20034;-66
2022/10/10 09:42:43;;;;;;;;;;;16.20;99.90;;;;;;5106620;28;19923;-66
2022/10/10 09:45:14;;;;;;;;;;;16.30;99.90;;;;;;5097257;28;20470;-69
2022/10/10 09:47:41;;;;;;;;;;;16.60;99.90;;;;;;5095252;28;19931;-66
2022/10/10 09:50:11;;;;;;;;;;;16.80;99.90;;;;;;5089149;28;20313;-66
2022/10/10 09:52:38;;;;;;;;;;;16.80;99.90;;;;;;5091243;28;19931;-66
2022/10/10 09:55:06;;;;;;;;;;;16.90;99.90;;;;;;5089848;28;19931;-66
2022/10/10 09:57:36;;;;;;;;;;;17.00;99.90;;;;;;5085050;28;19971;-66
2022/10/10 10:00:24;;;;;;;;;;;17.10;99.90;;;;;;5093919;28;20352;-66
2022/10/10 10:03:02;;;;;;;;;;;17.30;99.90;;;;;;5089302;28;19968;-66
2022/10/10 10:05:29;;;;;;;;;;;17.50;99.90;;;;;;5089277;28;19942;-66
2022/10/10 10:07:57;;;;;;;;;;;17.80;99.90;;;;;;5092753;28;19928;-66
2022/10/10 10:10:25;;;;;;;;;;;18.00;99.90;;;;;;5090306;28;19993;-66
2022/10/10 10:12:54;;;;;;;;;;;17.90;99.90;;;;;;5086918;28;19932;-66
2022/10/10 10:15:21;;;;;;;;;;;17.70;99.90;;;;;;5088439;28;19976;-66
2022/10/10 10:18:08;;;;;;;;;;;17.70;99.90;;;;;;5098359;28;20075;-66
2022/10/10 10:20:36;;;;;;;;;;;17.70;99.90;;;;;;5096244;28;19928;-66
2022/10/10 10:23:03;;;;;;;;;;;17.80;99.90;;;;;;5088733;28;19958;-67
2022/10/10 10:25:31;;;;;;;;;;;17.90;99.90;;;;;;5099244;28;19936;-65
2022/10/10 10:28:16;;;;;;;;;;;17.90;99.90;;;;;;5093617;28;19924;-67
2022/10/10 10:30:43;;;;;;;;;;;17.90;99.90;;;;;;5087582;28;19930;-66
2022/10/10 10:33:13;;;;;;;;;;;18.00;99.90;;;;;;5101201;28;19925;-61
2022/10/10 10:35:45;;;;;;;;;;;18.00;99.90;;;;;;5095479;28;19930;-66
2022/10/10 10:38:18;;;;;;;;;;;17.90;99.90;;;;;;5093775;28;20057;-66
2022/10/10 10:40:47;;;;;;;;;;;18.10;99.90;;;;;;5094696;28;20007;-66
2022/10/10 10:43:30;;;;;;;;;;;18.40;99.90;;;;;;5098292;28;20381;-66
2022/10/10 10:46:04;;;;;;;;;;;18.70;99.90;;;;;;5085883;28;19923;-67
2022/10/10 10:48:36;;;;;;;;;;;18.90;99.00;;;;;;5103067;28;19930;-66
2022/10/10 10:51:08;;;;;;;;;;;18.70;98.70;;;;;;5107340;28;19930;-66
2022/10/10 10:53:39;;;;;;;;;;;18.80;99.20;;;;;;5102912;28;19932;-66
2022/10/10 10:56:14;;;;;;;;;;;19.00;98.30;;;;;;5093334;28;20282;-67
2022/10/10 10:58:52;;;;;;;;;;;18.90;98.10;;;;;;5098905;28;20297;-66
2022/10/10 11:01:24;;;;;;;;;;;18.90;98.10;;;;;;5101013;28;19960;-66
2022/10/10 11:03:57;;;;;;;;;;;18.90;97.80;;;;;;5102003;28;19928;-66
2022/10/10 11:06:35;;;;;;;;;;;19.00;97.40;;;;;;5091732;28;19943;-68
2022/10/10 11:09:06;;;;;;;;;;;18.90;97.30;;;;;;5082810;28;19924;-66
2022/10/10 11:11:37;;;;;;;;;;;18.90;97.30;;;;;;5091164;28;19924;-66
2022/10/10 11:14:10;;;;;;;;;;;18.90;97.00;;;;;;5081780;28;19924;-66
2022/10/10 11:16:38;;;;;;;;;;;19.00;97.40;;;;;;5096876;28;20010;-66
2022/10/10 11:19:12;;;;;;;;;;;19.10;97.50;;;;;;5097845;28;19970;-66
2022/10/10 11:21:41;;;;;;;;;;;19.10;96.90;;;;;;5104256;28;20429;-66
2022/10/10 11:24:10;;;;;;;;;;;19.10;97.00;;;;;;5094546;28;20371;-66
2022/10/10 11:26:38;;;;;;;;;;;19.10;96.90;;;;;;5098120;28;19930;-67
2022/10/10 11:29:09;;;;;;;;;;;19.00;96.90;;;;;;5105906;28;20326;-66
2022/10/10 11:31:38;;;;;;;;;;;19.00;97.10;;;;;;5108866;28;19998;-66
2022/10/10 11:34:07;;;;;;;;;;;19.00;96.50;;;;;;5095172;28;19924;-66
2022/10/10 11:36:37;;;;;;;;;;;18.90;96.80;;;;;;5096432;28;20289;-66
2022/10/10 11:39:05;;;;;;;;;;;18.70;97.40;;;;;;5091674;28;19930;-67
2022/10/10 11:41:34;;;;;;;;;;;18.60;98.00;;;;;;5084519;28;19925;-66
2022/10/10 11:44:02;;;;;;;;;;;18.60;97.70;;;;;;5087542;28;20378;-66
2022/10/10 11:46:35;;;;;;;;;;;18.60;97.70;;;;;;5089865;28;19930;-66
2022/10/10 11:49:06;;;;;;;;;;;18.60;97.70;;;;;;5078706;28;20014;-67
2022/10/10 11:51:37;;;;;;;;;;;18.60;98.00;;;;;;5088146;28;19942;-66
2022/10/10 11:54:06;;;;;;;;;;;18.60;98.20;;;;;;5084904;28;19930;-65
2022/10/10 11:56:36;;;;;;;;;;;18.50;98.20;;;;;;5089846;28;20442;-66
2022/10/10 11:59:07;;;;;;;;;;;18.40;98.40;;;;;;5096657;28;19930;-65
2022/10/10 12:01:37;;;;;;;;;;;18.40;98.60;;;;;;5094438;28;19928;-66
2022/10/10 12:04:03;;;;;;;;;;;18.50;99.10;;;;;;5110801;28;20030;-66
2022/10/10 12:06:33;;;;;;;;;;;18.70;98.80;;;;;;5096660;28;19924;-66
2022/10/10 12:09:01;;;;;;;;;;;18.80;98.80;;;;;;5088586;28;19924;-66
2022/10/10 12:11:31;;;;;;;;;;;18.90;98.40;;;;;;5092565;28;20010;-66
2022/10/10 12:13:59;;;;;;;;;;;18.90;98.40;;;;;;5090255;28;19924;-66
2022/10/10 12:16:27;;;;;;;;;;;19.00;98.40;;;;;;5093838;28;19931;-66
2022/10/10 12:18:59;;;;;;;;;;;19.10;98.40;;;;;;5103239;28;20348;-66
2022/10/10 12:21:28;;;;;;;;;;;19.20;98.50;;;;;;5097236;28;19924;-66
2022/10/10 12:24:01;;;;;;;;;;;19.10;98.40;;;;;;5095085;28;19977;-66
2022/10/10 12:26:55;;;;;;;;;;;19.10;98.60;;;;;;5095823;28;19927;-66
2022/10/10 12:29:36;;;;;;;;;;;19.20;98.60;;;;;;5086601;28;19930;-65
2022/10/10 12:32:22;;;;;;;;;;;19.10;98.10;;;;;;5096288;28;19924;-67
2022/10/10 12:34:58;;;;;;;;;;;19.00;98.20;;;;;;5097637;28;21613;-65
2022/10/10 12:37:25;;;;;;;;;;;19.00;98.40;;;;;;5084088;28;20518;-65
2022/10/10 12:40:11;;;;;;;;;;;19.10;98.30;;;;;;5081269;28;20016;-65
2022/10/10 12:42:38;;;;;;;;;;;19.30;98.20;;;;;;5085275;28;19930;-65
2022/10/10 12:45:29;;;;;;;;;;;19.40;97.80;;;;;;5084492;28;20003;-65
2022/10/10 12:47:56;;;;;;;;;;;19.40;98.40;;;;;;5088647;28;19960;-66
2022/10/10 12:50:26;;;;;;;;;;;19.20;99.10;;;;;;5091395;28;19982;-66
2022/10/10 12:52:54;;;;;;;;;;;19.00;99.30;;;;;;5085135;28;20018;-66
2022/10/10 12:55:22;;;;;;;;;;;18.90;99.90;;;;;;5087476;28;20405;-66
2022/10/10 12:57:50;;;;;;;;;;;18.90;99.80;;;;;;5091236;28;20010;-65
2022/10/10 13:00:18;;;;;;;;;;;18.90;99.80;;;;;;5081849;28;19935;-66
2022/10/10 13:02:46;;;;;;;;;;;18.90;99.70;;;;;;5081751;28;19924;-66
2022/10/10 13:05:14;;;;;;;;;;;19.20;99.80;;;;;;5081553;28;19925;-66
2022/10/10 13:07:43;;;;;;;;;;;19.50;99.10;;;;;;5082870;28;19924;-66
2022/10/10 13:10:19;;;;;;;;;;;19.70;98.90;;;;;;5086729;28;20109;-66
2022/10/10 13:12:57;;;;;;;;;;;19.80;99.60;;;;;;5092148;28;19931;-66
2022/10/10 13:15:26;;;;;;;;;;;19.90;99.20;;;;;;5089200;28;20208;-66
2022/10/10 13:17:52;;;;;;;;;;;20.00;98.20;;;;;;5105333;28;19923;-66
2022/10/10 13:20:30;;;;;;;;;;;19.60;98.00;;;;;;5099261;28;19924;-66
2022/10/10 13:22:58;;;;;;;;;;;19.60;98.80;;;;;;5087428;28;19924;-66
2022/10/10 13:25:26;;;;;;;;;;;19.40;98.40;;;;;;5087739;28;19932;-66
2022/10/10 13:27:53;;;;;;;;;;;19.30;99.00;;;;;;5088467;28;19924;-65
2022/10/10 13:30:21;;;;;;;;;;;19.20;99.90;;;;;;5087235;28;19928;-66
2022/10/10 13:32:48;;;;;;;;;;;19.10;99.90;;;;;;5091572;28;19970;-65
2022/10/10 13:35:16;;;;;;;;;;;19.00;99.90;;;;;;5094217;28;19959;-67
2022/10/10 13:37:45;;;;;;;;;;;18.80;99.90;;;;;;5093041;28;20011;-65
2022/10/10 13:40:14;;;;;;;;;;;18.50;99.90;;;;;;5107983;28;19924;-66
2022/10/10 13:42:41;;;;;;;;;;;18.20;99.90;;;;;;5089385;28;20382;-67
2022/10/10 13:45:23;;;;;;;;;;;18.00;99.90;;;;;;5089528;28;19955;-66
2022/10/10 13:47:53;;;;;;;;;;;18.10;99.90;;;;;;5094765;28;19924;-68
2022/10/10 13:50:22;;;;;;;;;;;18.30;99.90;;;;;;5098806;28;19928;-67
2022/10/10 13:52:49;;;;;;;;;;;18.30;99.90;;;;;;5087843;28;19925;-68
2022/10/10 13:55:22;;;;;;;;;;;18.30;99.90;;;;;;5086562;28;20012;-67
2022/10/10 13:57:50;;;;;;;;;;;18.10;99.90;;;;;;5089716;28;19924;-67
2022/10/10 14:00:17;;;;;;;;;;;18.20;99.90;;;;;;5093337;28;19924;-67
2022/10/10 14:02:44;;;;;;;;;;;18.10;99.90;;;;;;5108178;28;19923;-67
2022/10/10 14:05:16;;;;;;;;;;;17.80;99.90;;;;;;5102578;28;19931;-65
2022/10/10 14:07:47;;;;;;;;;;;17.60;99.90;;;;;;5092169;28;19931;-66
2022/10/10 14:10:16;;;;;;;;;;;17.50;99.90;;;;;;5082802;28;19964;-65
2022/10/10 14:12:48;;;;;;;;;;;17.30;99.90;;;;;;5085936;28;19971;-66
2022/10/10 14:15:33;;;;;;;;;;;17.30;99.90;;;;;;5089383;28;19924;-66
2022/10/10 14:18:00;;;;;;;;;;;17.30;99.90;;;;;;5095751;28;19928;-65
2022/10/10 14:20:27;;;;;;;;;;;17.20;99.90;;;;;;5095515;28;20366;-65
2022/10/10 14:22:53;;;;;;;;;;;17.00;99.90;;;;;;5087581;28;19972;-66
2022/10/10 14:25:20;;;;;;;;;;;16.80;99.90;;;;;;5094293;28;19971;-65
2022/10/10 14:27:48;;;;;;;;;;;16.80;99.90;;;;;;5087687;28;19924;-65
2022/10/10 14:30:15;;;;;;;;;;;16.60;99.90;;;;;;5106378;28;19923;-67
2022/10/10 14:32:41;;;;;;;;;;;16.50;99.90;;;;;;5096195;28;19977;-67